Terminal Aerodrome Forecast
Issued by NWS Grand Junction, CO

Home | Current Version | Previous Version | Text Only | Print | Product List | Glossary On
Versions: 1 2 3 4 5 6 7 8 9 10 11 12 13 14 15 16 17 18 19 20 21 22 23 24
000
FTUS45 KGJT 301140
TAFGJT
TAF
KGJT 301140Z 3012/0112 VRB03KT P6SM VCSH BKN035 OVC060
     FM301500 13004KT P6SM SCT040 BKN060
     FM301800 VRB03KT P6SM VCTS BKN070CB
     FM010200 12004KT P6SM SCT070 SCT120
     FM010800 11007KT P6SM SCT150=

USA.gov is the U.S. government's official web portal to all federal, state and local government web resources and services.